createdAt,value
2018-06-29T00:00:41.565Z,82.90
2018-06-29T00:03:10.440Z,83.40
2018-06-29T00:05:39.471Z,83.60
2018-06-29T00:08:08.356Z,83.90
2018-06-29T00:10:37.220Z,83.30
2018-06-29T00:13:06.094Z,86.00
2018-06-29T00:15:35.217Z,86.50
2018-06-29T00:18:04.089Z,86.90
2018-06-29T00:20:33.652Z,87.40
2018-06-29T00:23:02.550Z,87.00
2018-06-29T00:25:31.403Z,87.80
2018-06-29T00:28:00.272Z,87.30
2018-06-29T00:30:29.147Z,88.20
2018-06-29T00:32:58.036Z,89.10
2018-06-29T00:35:26.895Z,89.50
2018-06-29T00:37:55.756Z,89.50
2018-06-29T00:40:24.621Z,90.00
2018-06-29T00:42:53.481Z,90.10
2018-06-29T00:45:22.370Z,90.20
2018-06-29T00:47:51.272Z,90.40
2018-06-29T00:50:20.119Z,90.50
2018-06-29T00:52:48.976Z,90.70
2018-06-29T00:55:17.852Z,90.70
2018-06-29T00:57:46.769Z,90.90
2018-06-29T01:00:15.645Z,91.20
2018-06-29T01:02:44.531Z,91.30
2018-06-29T01:05:13.392Z,91.40
2018-06-29T01:07:42.305Z,91.50
2018-06-29T01:10:11.152Z,91.70
2018-06-29T01:12:40.033Z,92.10
2018-06-29T01:15:08.908Z,92.20
2018-06-29T01:17:37.779Z,92.50
2018-06-29T01:20:06.641Z,92.70
2018-06-29T01:22:35.555Z,93.30
2018-06-29T01:25:04.379Z,93.40
2018-06-29T01:27:33.240Z,93.30
2018-06-29T01:30:02.114Z,93.00
2018-06-29T01:32:31.167Z,93.30
2018-06-29T01:35:00.045Z,93.00
2018-06-29T01:37:28.898Z,93.20
2018-06-29T01:39:57.791Z,93.80
2018-06-29T01:42:26.650Z,93.80
2018-06-29T01:44:56.165Z,93.90
2018-06-29T01:47:25.020Z,93.80
2018-06-29T01:49:53.893Z,94.30
2018-06-29T01:52:22.740Z,94.30
2018-06-29T01:54:51.601Z,94.30
2018-06-29T01:57:20.648Z,94.60
2018-06-29T01:59:49.615Z,94.30
2018-06-29T02:02:18.476Z,94.80
2018-06-29T02:04:47.336Z,94.90
2018-06-29T02:07:16.210Z,95.00
2018-06-29T02:09:45.108Z,95.10
2018-06-29T02:12:14.572Z,95.80
2018-06-29T02:14:43.469Z,95.50
2018-06-29T02:17:12.368Z,96.30
2018-06-29T02:19:41.344Z,96.00
2018-06-29T02:22:10.285Z,96.00
2018-06-29T02:24:39.165Z,96.40
2018-06-29T02:27:08.125Z,96.00
2018-06-29T02:29:37.000Z,96.30
2018-06-29T02:32:05.887Z,96.30
2018-06-29T02:34:34.809Z,96.40
2018-06-29T02:37:03.680Z,96.50
2018-06-29T02:39:32.569Z,96.70
2018-06-29T02:42:01.693Z,97.00
2018-06-29T02:44:30.572Z,96.90
2018-06-29T02:46:59.980Z,97.10
2018-06-29T02:49:28.855Z,97.10
2018-06-29T02:51:57.728Z,97.10
2018-06-29T02:54:26.622Z,97.20
2018-06-29T02:56:55.488Z,97.20
2018-06-29T02:59:24.367Z,97.30
2018-06-29T03:01:53.240Z,97.50
2018-06-29T03:04:22.124Z,97.60
2018-06-29T03:06:51.002Z,97.80
2018-06-29T03:09:19.871Z,98.10
2018-06-29T03:11:49.024Z,97.80
2018-06-29T03:14:17.850Z,97.80
2018-06-29T03:16:46.739Z,98.00
2018-06-29T03:19:15.603Z,98.00
2018-06-29T03:21:44.491Z,98.40
2018-06-29T03:24:13.372Z,98.10
2018-06-29T03:26:42.249Z,98.60
2018-06-29T03:29:11.135Z,98.80
2018-06-29T03:31:40.005Z,99.00
2018-06-29T03:34:08.908Z,99.30
2018-06-29T03:36:37.929Z,99.10
2018-06-29T03:39:07.881Z,98.60
2018-06-29T03:41:36.764Z,99.00
2018-06-29T03:44:05.671Z,99.10
2018-06-29T03:46:34.722Z,99.40
2018-06-29T03:49:03.593Z,99.50
2018-06-29T03:51:32.474Z,99.60
2018-06-29T03:54:01.333Z,99.40
2018-06-29T03:56:30.213Z,99.40
2018-06-29T03:58:59.112Z,99.60
2018-06-29T04:01:28.005Z,99.70
2018-06-29T04:03:57.676Z,99.70
2018-06-29T04:06:26.548Z,99.70
2018-06-29T04:08:55.423Z,99.80
2018-06-29T04:11:24.376Z,99.90
2018-06-29T04:13:53.256Z,99.60
2018-06-29T04:16:22.137Z,99.30
2018-06-29T04:18:51.040Z,99.30
2018-06-29T04:21:19.916Z,99.40
2018-06-29T04:23:49.451Z,99.60
2018-06-29T04:26:18.328Z,99.50
2018-06-29T04:28:47.197Z,99.10
2018-06-29T04:31:16.082Z,99.50
2018-06-29T04:33:45.001Z,99.20
2018-06-29T04:36:14.009Z,99.00
2018-06-29T04:38:42.884Z,99.30
2018-06-29T04:41:11.772Z,99.70
2018-06-29T04:43:40.656Z,99.10
2018-06-29T04:46:09.533Z,99.20
2018-06-29T04:48:38.536Z,99.00
2018-06-29T04:51:07.417Z,98.90
2018-06-29T04:53:36.286Z,98.70
2018-06-29T04:56:05.156Z,98.60
2018-06-29T04:58:34.176Z,98.50
2018-06-29T05:01:03.324Z,98.40
2018-06-29T05:03:32.120Z,98.00
2018-06-29T05:06:00.998Z,97.90
2018-06-29T05:08:29.864Z,97.70
2018-06-29T05:10:58.752Z,97.40
2018-06-29T05:13:27.680Z,97.20
2018-06-29T05:15:56.541Z,97.30
2018-06-29T05:18:25.403Z,96.90
2018-06-29T05:20:54.276Z,96.90
2018-06-29T05:23:23.140Z,96.70
2018-06-29T05:25:52.036Z,96.50
2018-06-29T05:28:20.934Z,96.50
2018-06-29T05:30:49.795Z,96.80
2018-06-29T05:33:18.921Z,96.60
2018-06-29T05:35:48.519Z,96.20
2018-06-29T05:38:17.416Z,96.10
2018-06-29T05:49:43.954Z,95.10
2018-06-29T05:52:13.913Z,94.80
2018-06-29T05:54:43.136Z,95.00
2018-06-29T05:57:12.011Z,94.90
2018-06-29T06:02:44.500Z,94.50
2018-06-29T06:14:23.723Z,93.80
2018-06-29T06:22:26.668Z,93.50
2018-06-29T06:24:55.540Z,92.70
2018-06-29T06:30:18.198Z,92.70
2018-06-29T15:32:39.174Z,29.80
2018-06-29T15:46:38.661Z,26.70
2018-06-29T15:49:09.194Z,26.70
2018-06-29T15:51:38.112Z,25.90
2018-06-29T15:54:08.853Z,25.30
2018-06-29T15:56:37.915Z,25.20
2018-06-29T15:59:10.703Z,25.70
2018-06-29T16:01:40.063Z,26.10
2018-06-29T16:04:09.274Z,26.30
2018-06-29T16:06:39.226Z,25.80
2018-06-29T16:09:09.907Z,26.20
2018-06-29T16:11:57.902Z,24.80
2018-06-29T16:14:27.107Z,25.30
2018-06-29T16:16:59.939Z,25.40
2018-06-29T16:19:29.001Z,25.80
2018-06-29T16:21:58.275Z,25.10
2018-06-29T16:24:27.743Z,24.80
2018-06-29T16:26:56.754Z,25.10
2018-06-29T16:29:25.806Z,26.50
2018-06-29T16:37:27.837Z,25.90
2018-06-29T16:39:56.840Z,24.90
2018-06-29T16:42:25.855Z,25.40
2018-06-29T16:44:56.681Z,25.50
2018-06-29T16:50:29.299Z,25.70
2018-06-29T16:56:14.682Z,24.60
2018-06-29T17:01:17.866Z,25.10
2018-06-29T17:03:46.861Z,25.10
2018-06-29T17:06:16.405Z,26.70
2018-06-29T17:08:45.341Z,27.70
2018-06-29T17:11:14.365Z,29.00
2018-06-29T17:20:00.415Z,30.80
2018-06-29T17:22:29.643Z,32.00
2018-06-29T17:24:59.280Z,33.00
2018-06-29T17:27:28.101Z,33.10
2018-06-29T17:29:57.378Z,33.90
2018-06-29T17:32:26.367Z,34.20
2018-06-29T17:34:55.345Z,34.90
2018-06-29T17:37:24.645Z,35.90
2018-06-29T17:39:53.789Z,35.00
2018-06-29T17:42:22.818Z,35.50
2018-06-29T17:44:51.791Z,36.00
2018-06-29T17:47:20.816Z,36.00
2018-06-29T17:49:55.276Z,36.70
2018-06-29T17:55:05.075Z,37.00
2018-06-29T17:57:34.033Z,37.40
2018-06-29T18:00:02.959Z,38.10
2018-06-29T18:02:32.633Z,38.30
2018-06-29T18:05:01.528Z,38.60
2018-06-29T18:07:30.421Z,38.70
2018-06-29T18:10:00.317Z,38.70
2018-06-29T18:12:29.236Z,39.20
2018-06-29T18:14:58.134Z,38.60
2018-06-29T18:17:27.018Z,39.60
2018-06-29T18:19:55.904Z,39.80
2018-06-29T18:22:24.812Z,40.40
2018-06-29T18:24:53.992Z,40.40
2018-06-29T18:27:22.845Z,40.70
2018-06-29T18:29:51.749Z,41.00
2018-06-29T18:32:20.652Z,41.20
2018-06-29T18:34:49.653Z,41.60
2018-06-29T18:40:00.450Z,42.10
2018-06-29T18:42:29.332Z,43.10
2018-06-29T18:45:21.024Z,43.80
2018-06-29T18:47:50.205Z,45.30
2018-06-29T18:50:24.700Z,47.20
2018-06-29T18:52:53.612Z,48.90
2018-06-29T18:55:39.109Z,50.20
2018-06-29T19:12:50.948Z,57.00
2018-06-29T19:15:19.884Z,59.00
2018-06-29T19:17:48.825Z,59.60
2018-06-29T19:20:17.797Z,60.80
2018-06-29T19:22:46.742Z,61.50
2018-06-29T19:25:15.688Z,62.90
2018-06-29T19:27:44.603Z,64.30
2018-06-29T19:30:14.017Z,64.20
2018-06-29T19:32:42.941Z,65.10
2018-06-29T19:35:11.858Z,65.70
2018-06-29T19:37:40.818Z,66.70
2018-06-29T19:40:09.731Z,67.30
2018-06-29T19:42:38.733Z,67.50
2018-06-29T19:45:07.737Z,68.40
2018-06-29T19:47:36.669Z,69.00
2018-06-29T19:50:05.981Z,70.50
2018-06-29T19:52:34.924Z,70.30
2018-06-29T19:55:03.906Z,71.80
2018-06-29T19:57:32.815Z,72.30
2018-06-29T20:00:01.757Z,73.70
2018-06-29T20:02:30.675Z,73.10
2018-06-29T20:04:59.629Z,73.90
2018-06-29T20:07:29.145Z,73.00
2018-06-29T20:09:58.088Z,74.70
2018-06-29T20:12:27.046Z,75.00
2018-06-29T20:14:55.998Z,75.20
2018-06-29T20:17:24.974Z,75.70
2018-06-29T20:19:53.915Z,75.40
2018-06-29T20:22:22.842Z,77.10
2018-06-29T20:24:51.798Z,77.50
2018-06-29T20:27:20.732Z,75.20
2018-06-29T20:29:49.683Z,76.70
2018-06-29T20:32:18.684Z,77.30
2018-06-29T20:34:47.637Z,77.30
2018-06-29T20:37:16.659Z,77.50
2018-06-29T20:39:45.604Z,77.50
2018-06-29T20:42:15.510Z,77.30
2018-06-29T20:44:44.441Z,78.50
2018-06-29T20:47:13.987Z,79.80
2018-06-29T20:49:42.886Z,78.30
2018-06-29T20:52:11.906Z,78.70
2018-06-29T20:54:40.866Z,80.30
2018-06-29T20:57:09.824Z,81.40
2018-06-29T20:59:38.765Z,81.10
2018-06-29T21:02:07.727Z,80.40
2018-06-29T21:04:36.718Z,80.30
2018-06-29T21:07:05.661Z,80.60
2018-06-29T21:09:34.642Z,82.00
2018-06-29T21:12:03.628Z,83.10
2018-06-29T21:14:32.750Z,85.40
2018-06-29T21:17:01.706Z,84.10
2018-06-29T21:19:30.634Z,84.50
2018-06-29T21:21:59.618Z,84.00
2018-06-29T21:24:28.552Z,87.20
2018-06-29T21:26:57.494Z,84.40
2018-06-29T21:29:26.458Z,87.50
2018-06-29T21:34:23.998Z,86.20
2018-06-29T21:36:52.893Z,86.30
2018-06-29T21:39:22.151Z,87.10
2018-06-29T21:41:51.041Z,87.50
2018-06-29T21:44:19.940Z,87.70
2018-06-29T21:46:48.851Z,88.00
2018-06-29T21:49:17.751Z,88.40
2018-06-29T21:51:46.644Z,88.80
2018-06-29T21:54:15.599Z,89.90
2018-06-29T21:56:44.427Z,90.40
2018-06-29T21:59:13.373Z,90.20
2018-06-29T22:01:42.248Z,90.50
2018-06-29T22:04:11.144Z,90.40
2018-06-29T22:06:40.050Z,90.10
2018-06-29T22:09:09.647Z,90.10
2018-06-29T22:11:38.608Z,90.10
2018-06-29T22:14:08.235Z,90.30
2018-06-29T22:16:37.116Z,90.20
2018-06-29T22:19:06.136Z,90.40
2018-06-29T22:21:35.028Z,90.50
2018-06-29T22:24:04.656Z,90.60
2018-06-29T22:26:33.605Z,90.60
2018-06-29T22:29:02.476Z,90.70
2018-06-29T22:34:00.054Z,90.80
2018-06-29T22:38:57.488Z,91.00
2018-06-29T22:41:26.368Z,91.00
2018-06-29T22:43:55.266Z,91.10
2018-06-29T22:46:24.244Z,91.20
2018-06-29T22:48:53.152Z,91.40
2018-06-29T22:51:22.082Z,91.70
2018-06-29T22:53:50.984Z,91.70
2018-06-29T22:56:19.896Z,92.00
2018-06-29T22:58:48.804Z,92.50
2018-06-29T23:01:17.733Z,92.90
2018-06-29T23:03:51.923Z,93.20
2018-06-29T23:06:20.863Z,93.70
2018-06-29T23:11:18.657Z,94.00
2018-06-29T23:13:47.564Z,94.30
2018-06-29T23:16:16.868Z,94.70
2018-06-29T23:18:45.795Z,94.90
2018-06-29T23:21:14.720Z,95.10
2018-06-29T23:23:43.927Z,95.30
2018-06-29T23:26:12.815Z,95.50
2018-06-29T23:28:41.726Z,95.70
2018-06-29T23:31:10.628Z,96.00
2018-06-29T23:33:39.534Z,96.10
2018-06-29T23:36:08.449Z,96.50
2018-06-29T23:38:37.372Z,96.70
2018-06-29T23:41:06.336Z,96.80
2018-06-29T23:43:35.539Z,97.70
2018-06-29T23:46:04.573Z,97.30
2018-06-29T23:48:33.606Z,97.60
2018-06-29T23:51:02.542Z,97.90
2018-06-29T23:53:31.449Z,98.00
2018-06-29T23:56:00.568Z,98.10
2018-06-29T23:58:29.428Z,98.50
